Time;durP1;ratioP1;P1;durP2;ratioP2;P2;SDS_P1;SDS_P2;PMS_P1;PMS_P2;Temp;Humidity;BMP_temperature;BMP_pressure;BME280_temperature;BME280_humidity;BME280_pressure;Samples;Min_cycle;Max_cycle;Signal;HPM_P1;HPM_P2
2022/07/10 00:00:29;;;;;;;3.22;2.92;;;15.00;99.90;;;;;;5036038;28;20079;-76
2022/07/10 00:02:55;;;;;;;3.30;3.10;;;15.00;99.90;;;;;;5034859;28;20487;-76
2022/07/10 00:05:21;;;;;;;4.28;3.00;;;15.00;99.90;;;;;;5035778;28;20059;-75
2022/07/10 00:07:48;;;;;;;3.83;3.53;;;15.00;99.90;;;;;;5036019;28;20080;-75
2022/07/10 00:10:14;;;;;;;3.60;3.30;;;15.00;99.90;;;;;;5036000;28;20371;-75
2022/07/10 00:12:39;;;;;;;5.22;3.35;;;15.00;99.90;;;;;;5034629;28;20075;-75
2022/07/10 00:15:06;;;;;;;6.50;3.85;;;15.00;99.90;;;;;;5034866;28;20108;-75
2022/07/10 00:17:33;;;;;;;3.72;3.42;;;15.00;99.90;;;;;;5035903;28;20029;-77
2022/07/10 00:19:59;;;;;;;5.43;3.50;;;15.00;99.90;;;;;;5035728;28;20462;-75
2022/07/10 00:22:24;;;;;;;5.85;3.90;;;15.00;99.90;;;;;;5036076;28;20507;-75
2022/07/10 00:24:50;;;;;;;6.47;4.18;;;15.00;99.90;;;;;;5035980;28;20038;-75
2022/07/10 00:27:17;;;;;;;3.80;3.40;;;15.00;99.90;;;;;;5035070;28;20026;-75
2022/07/10 00:29:43;;;;;;;8.35;3.80;;;15.00;99.90;;;;;;5067556;28;20477;-76
2022/07/10 00:32:09;;;;;;;7.13;3.80;;;15.00;99.90;;;;;;5035534;28;20030;-75
2022/07/10 00:34:35;;;;;;;5.10;3.67;;;15.00;99.90;;;;;;5034159;28;20056;-75
2022/07/10 00:37:01;;;;;;;4.78;3.92;;;14.90;99.90;;;;;;5035467;28;20028;-75
2022/07/10 00:39:27;;;;;;;6.00;4.13;;;14.90;99.90;;;;;;5034038;28;20025;-75
2022/07/10 00:41:52;;;;;;;4.22;3.80;;;14.90;99.90;;;;;;5035345;28;20079;-75
2022/07/10 00:44:18;;;;;;;5.55;3.70;;;14.90;99.90;;;;;;5035314;28;20052;-75
2022/07/10 00:46:44;;;;;;;8.05;3.65;;;14.80;99.90;;;;;;5035268;28;20151;-76
2022/07/10 00:49:09;;;;;;;4.30;3.97;;;14.80;99.90;;;;;;5033994;28;20056;-75
2022/07/10 00:51:36;;;;;;;4.38;4.00;;;14.70;99.90;;;;;;5035192;28;20457;-75
2022/07/10 00:54:02;;;;;;;4.10;3.65;;;14.70;99.90;;;;;;5035223;28;20025;-75
2022/07/10 00:56:28;;;;;;;4.25;3.88;;;14.70;99.90;;;;;;5035084;28;20025;-75
2022/07/10 00:58:54;;;;;;;5.07;3.38;;;14.70;99.90;;;;;;5033624;28;20049;-75
2022/07/10 01:01:22;;;;;;;7.63;3.80;;;14.70;99.90;;;;;;5034899;28;20035;-75
2022/07/10 01:03:48;;;;;;;5.43;3.40;;;14.70;99.90;;;;;;5034938;28;20049;-75
2022/07/10 01:06:14;;;;;;;5.90;3.85;;;14.70;99.90;;;;;;5033863;28;20021;-75
2022/07/10 01:08:40;;;;;;;4.13;3.75;;;14.70;99.90;;;;;;5034807;28;20040;-75
2022/07/10 01:11:06;;;;;;;4.97;3.58;;;14.80;99.90;;;;;;5035051;28;20405;-75
2022/07/10 01:13:32;;;;;;;3.83;3.40;;;14.80;99.90;;;;;;5034751;28;20400;-75
2022/07/10 01:15:58;;;;;;;4.18;3.45;;;14.80;99.90;;;;;;5033412;28;20481;-75
2022/07/10 01:18:25;;;;;;;3.67;3.38;;;14.80;99.90;;;;;;5066612;28;20036;-76
2022/07/10 01:20:53;;;;;;;6.47;3.53;;;14.80;99.90;;;;;;5034264;28;20030;-75
2022/07/10 01:23:18;;;;;;;3.78;3.20;;;14.80;99.90;;;;;;5034622;28;20025;-76
2022/07/10 01:25:44;;;;;;;5.00;3.20;;;14.80;99.90;;;;;;5066471;28;20022;-75
2022/07/10 01:28:09;;;;;;;4.35;3.30;;;14.80;99.90;;;;;;5034216;28;20025;-76
2022/07/10 01:30:35;;;;;;;4.18;3.50;;;14.70;99.90;;;;;;5033180;28;20025;-75
2022/07/10 01:33:01;;;;;;;3.67;3.10;;;14.70;99.90;;;;;;5033570;28;20036;-75
2022/07/10 01:35:26;;;;;;;4.30;3.22;;;14.70;99.90;;;;;;5033165;28;20026;-75
2022/07/10 01:37:52;;;;;;;5.40;3.20;;;14.70;99.90;;;;;;5034314;28;20029;-76
2022/07/10 01:40:18;;;;;;;3.78;3.13;;;14.70;99.90;;;;;;5033341;28;20026;-75
2022/07/10 01:42:45;;;;;;;7.80;3.20;;;14.70;99.90;;;;;;5034423;28;20068;-75
2022/07/10 01:45:11;;;;;;;3.72;3.33;;;14.70;99.90;;;;;;5034229;28;20469;-75
2022/07/10 01:47:37;;;;;;;5.43;3.72;;;14.60;99.90;;;;;;5034211;28;20061;-76
2022/07/10 01:50:03;;;;;;;3.67;3.22;;;14.60;99.90;;;;;;5034410;28;20029;-76
2022/07/10 01:52:29;;;;;;;5.47;3.60;;;14.50;99.90;;;;;;5033994;28;20451;-75
2022/07/10 01:54:55;;;;;;;4.50;3.70;;;14.50;99.90;;;;;;5032800;28;20049;-75
2022/07/10 01:57:20;;;;;;;3.65;3.35;;;14.40;99.90;;;;;;5034231;28;20049;-75
2022/07/10 01:59:46;;;;;;;3.85;3.55;;;14.40;99.90;;;;;;5032668;28;20026;-75
2022/07/10 02:02:12;;;;;;;7.68;4.32;;;14.40;99.90;;;;;;5032748;28;20030;-76
2022/07/10 02:04:41;;;;;;;5.57;3.60;;;14.40;99.90;;;;;;5033953;28;20423;-75
2022/07/10 02:07:10;;;;;;;5.50;3.25;;;14.30;99.90;;;;;;5033938;28;20017;-75
2022/07/10 02:09:38;;;;;;;5.07;3.47;;;14.30;99.90;;;;;;5033940;28;20147;-75
2022/07/10 02:12:05;;;;;;;4.90;3.60;;;14.30;99.90;;;;;;5033589;28;20036;-75
2022/07/10 02:14:31;;;;;;;4.97;3.53;;;14.30;99.90;;;;;;5033869;28;20021;-75
2022/07/10 02:16:57;;;;;;;6.18;3.70;;;14.30;99.90;;;;;;5034121;28;20025;-75
2022/07/10 02:19:22;;;;;;;4.15;3.58;;;14.30;99.90;;;;;;5033345;28;20120;-75
2022/07/10 02:21:48;;;;;;;10.02;4.13;;;14.30;99.90;;;;;;5033770;28;20104;-75
2022/07/10 02:24:13;;;;;;;4.25;3.78;;;14.20;99.90;;;;;;5032594;28;20524;-76
2022/07/10 02:26:39;;;;;;;5.75;3.53;;;14.20;99.90;;;;;;5033700;28;20036;-75
2022/07/10 02:29:05;;;;;;;5.70;3.65;;;14.20;99.90;;;;;;5032456;28;20103;-75
2022/07/10 02:31:32;;;;;;;4.18;3.78;;;14.20;99.90;;;;;;5033695;28;20041;-76
2022/07/10 02:33:57;;;;;;;7.25;3.90;;;14.20;99.90;;;;;;5032358;28;20455;-76
2022/07/10 02:36:23;;;;;;;7.03;4.07;;;14.10;99.90;;;;;;5032398;28;20116;-75
2022/07/10 02:38:49;;;;;;;4.50;4.10;;;14.10;99.90;;;;;;5065652;28;20033;-75
2022/07/10 02:41:14;;;;;;;4.75;3.53;;;14.10;99.90;;;;;;5033247;28;20032;-75
2022/07/10 02:43:40;;;;;;;4.53;4.13;;;14.10;99.90;;;;;;5033667;28;20026;-75
2022/07/10 02:46:05;;;;;;;4.65;4.25;;;14.10;99.90;;;;;;5033561;28;20025;-75
2022/07/10 02:48:31;;;;;;;5.32;3.85;;;14.20;99.90;;;;;;5033547;28;20025;-75
2022/07/10 02:50:57;;;;;;;3.88;3.55;;;14.20;99.90;;;;;;5033374;28;20029;-75
2022/07/10 02:53:22;;;;;;;5.82;3.95;;;14.30;99.90;;;;;;5037425;28;20030;-75
2022/07/10 02:55:48;;;;;;;4.30;3.95;;;14.30;99.90;;;;;;5036580;28;20095;-75
2022/07/10 02:58:15;;;;;;;5.15;3.80;;;14.40;99.90;;;;;;5037415;28;20057;-75
2022/07/10 03:00:41;;;;;;;4.22;3.90;;;14.40;99.90;;;;;;5037552;28;20172;-75
2022/07/10 03:03:07;;;;;;;3.90;3.50;;;14.50;99.90;;;;;;5036036;28;20091;-75
2022/07/10 03:05:33;;;;;;;5.68;4.53;;;14.50;99.90;;;;;;5037206;28;20029;-75
2022/07/10 03:07:59;;;;;;;4.20;3.20;;;14.50;99.90;;;;;;5036863;28;20099;-75
2022/07/10 03:10:24;;;;;;;5.65;3.55;;;14.60;99.90;;;;;;5037050;28;20034;-75
2022/07/10 03:12:50;;;;;;;3.88;3.58;;;14.60;99.90;;;;;;5036252;28;20112;-75
2022/07/10 03:15:16;;;;;;;5.43;3.50;;;14.60;99.90;;;;;;5036356;28;20032;-75
2022/07/10 03:17:41;;;;;;;5.55;3.63;;;14.60;99.90;;;;;;5035962;28;20494;-75
2022/07/10 03:20:08;;;;;;;3.53;3.10;;;14.60;99.90;;;;;;5036873;28;20033;-75
2022/07/10 03:22:34;;;;;;;6.43;3.35;;;14.60;99.90;;;;;;5036836;28;20028;-75
2022/07/10 03:25:00;;;;;;;6.10;3.40;;;14.60;99.90;;;;;;5036961;28;20444;-75
2022/07/10 03:27:25;;;;;;;3.72;3.22;;;14.60;99.90;;;;;;5036853;28;20048;-75
2022/07/10 03:29:51;;;;;;;4.63;3.38;;;14.70;99.90;;;;;;5035663;28;20036;-75
2022/07/10 03:32:16;;;;;;;5.53;3.53;;;14.70;99.90;;;;;;5035468;28;20388;-75
2022/07/10 03:34:42;;;;;;;4.20;3.67;;;14.80;99.90;;;;;;5036874;28;20037;-75
2022/07/10 03:37:08;;;;;;;3.83;3.15;;;14.80;99.90;;;;;;5036652;28;20060;-75
2022/07/10 03:39:33;;;;;;;7.97;3.92;;;14.80;99.90;;;;;;5035231;28;20029;-75
2022/07/10 03:41:59;;;;;;;5.60;3.50;;;14.90;99.90;;;;;;5035278;28;20078;-76
2022/07/10 03:44:25;;;;;;;5.00;4.13;;;14.90;99.90;;;;;;5068548;28;20405;-75
2022/07/10 03:46:50;;;;;;;3.50;3.20;;;14.90;99.90;;;;;;5036482;28;20025;-76
2022/07/10 03:49:16;;;;;;;4.63;3.28;;;14.90;99.90;;;;;;5036422;28;20028;-76
2022/07/10 03:51:42;;;;;;;5.50;3.50;;;14.90;99.90;;;;;;5035155;28;20549;-76
2022/07/10 03:54:07;;;;;;;5.70;3.00;;;14.90;99.90;;;;;;5036622;28;20026;-75
2022/07/10 03:59:17;;;;;;;4.50;3.38;;;14.90;99.90;;;;;;5036177;28;20131;-75
2022/07/10 04:01:44;;;;;;;4.47;3.50;;;15.00;99.90;;;;;;5034351;28;20049;-77
2022/07/10 04:04:09;;;;;;;3.47;3.15;;;15.00;99.90;;;;;;5034178;28;20075;-76
2022/07/10 04:06:38;;;;;;;3.95;3.15;;;15.00;99.90;;;;;;5034849;28;20029;-75
2022/07/10 04:09:05;;;;;;;5.20;3.90;;;15.00;99.90;;;;;;5036054;28;20450;-75
2022/07/10 04:11:30;;;;;;;3.22;2.97;;;15.10;99.90;;;;;;5036339;28;20079;-76
2022/07/10 04:13:56;;;;;;;6.43;3.72;;;15.10;99.90;;;;;;5035994;28;20025;-76
2022/07/10 04:16:22;;;;;;;4.43;3.10;;;15.20;99.90;;;;;;5035602;28;20366;-76
2022/07/10 04:18:48;;;;;;;5.75;3.05;;;15.20;99.90;;;;;;5034586;28;20021;-76
2022/07/10 04:21:14;;;;;;;3.78;3.47;;;15.30;99.90;;;;;;5067736;28;20095;-76
2022/07/10 04:23:39;;;;;;;3.33;3.05;;;15.40;99.90;;;;;;5035542;28;20112;-76
2022/07/10 04:26:05;;;;;;;3.70;3.08;;;15.50;99.90;;;;;;5035768;28;20037;-76
2022/07/10 04:28:31;;;;;;;3.78;2.35;;;15.60;99.90;;;;;;5035753;28;20025;-76
2022/07/10 04:30:56;;;;;;;3.83;2.38;;;15.60;99.90;;;;;;5035658;28;20458;-76
2022/07/10 04:33:22;;;;;;;3.85;2.80;;;15.70;99.90;;;;;;5034699;28;20034;-77
2022/07/10 04:35:48;;;;;;;3.30;2.55;;;15.70;99.90;;;;;;5035583;28;20470;-76
2022/07/10 04:38:13;;;;;;;2.78;2.20;;;15.70;99.90;;;;;;5035485;28;20103;-76
2022/07/10 04:40:39;;;;;;;3.50;2.85;;;15.80;99.90;;;;;;5035103;28;20033;-76
2022/07/10 04:43:05;;;;;;;3.05;2.45;;;15.80;99.90;;;;;;5034840;28;20061;-76
2022/07/10 04:45:30;;;;;;;5.35;2.45;;;15.80;99.90;;;;;;5035346;28;20414;-76
2022/07/10 04:47:56;;;;;;;7.50;2.25;;;15.90;99.90;;;;;;5034234;28;20028;-76
2022/07/10 04:50:21;;;;;;;2.88;2.00;;;15.90;99.90;;;;;;5033894;28;20052;-76
2022/07/10 04:52:47;;;;;;;2.97;2.70;;;16.00;99.90;;;;;;5035208;28;20100;-76
2022/07/10 04:55:13;;;;;;;5.88;3.15;;;16.10;99.90;;;;;;5034360;28;20035;-76
2022/07/10 04:57:39;;;;;;;4.10;2.70;;;16.20;99.90;;;;;;5033958;28;20136;-76
2022/07/10 05:00:05;;;;;;;3.17;2.60;;;16.20;99.90;;;;;;5033815;28;20124;-76
2022/07/10 05:02:30;;;;;;;3.35;2.38;;;16.30;99.90;;;;;;5033816;28;20036;-76
2022/07/10 05:04:56;;;;;;;3.90;2.50;;;16.40;99.90;;;;;;5034977;28;20033;-76
2022/07/10 05:07:22;;;;;;;5.85;2.42;;;16.40;99.90;;;;;;5034902;28;20510;-76
2022/07/10 05:09:47;;;;;;;4.65;2.30;;;16.50;99.90;;;;;;5033668;28;20033;-76
2022/07/10 05:12:13;;;;;;;4.63;1.92;;;16.60;99.90;;;;;;5066818;28;20040;-76
2022/07/10 05:14:38;;;;;;;4.65;2.30;;;16.70;99.90;;;;;;5034664;28;20100;-76
2022/07/10 05:17:04;;;;;;;2.53;2.33;;;16.70;99.90;;;;;;5033721;28;20032;-77
2022/07/10 05:19:30;;;;;;;6.68;2.10;;;16.70;99.90;;;;;;5066425;28;20107;-76
2022/07/10 05:21:55;;;;;;;1.95;1.85;;;16.70;99.90;;;;;;5033309;28;20063;-77
2022/07/10 05:24:21;;;;;;;2.72;1.83;;;16.70;99.90;;;;;;5034647;28;20021;-77
2022/07/10 05:26:47;;;;;;;3.17;2.15;;;16.70;99.90;;;;;;5034572;28;20053;-77
2022/07/10 05:29:12;;;;;;;3.70;1.80;;;16.70;99.90;;;;;;5034506;28;20112;-76
2022/07/10 05:31:38;;;;;;;3.50;1.80;;;16.70;99.90;;;;;;5034119;28;20025;-76
2022/07/10 05:34:04;;;;;;;3.80;1.90;;;16.80;99.90;;;;;;5066583;28;20029;-77
2022/07/10 05:36:29;;;;;;;2.13;1.92;;;16.80;99.90;;;;;;5033080;28;20025;-77
2022/07/10 05:38:55;;;;;;;3.75;2.17;;;16.80;99.90;;;;;;5034774;28;20025;-76
2022/07/10 05:41:20;;;;;;;2.95;1.88;;;16.90;99.90;;;;;;5033000;28;20041;-77
2022/07/10 05:43:46;;;;;;;2.83;1.50;;;17.00;99.90;;;;;;5066244;28;20034;-77
2022/07/10 05:46:12;;;;;;;2.78;1.73;;;17.10;99.90;;;;;;5034224;28;20029;-76
2022/07/10 05:48:38;;;;;;;2.05;1.90;;;17.30;99.90;;;;;;5066183;28;20021;-77
2022/07/10 05:51:04;;;;;;;4.75;2.10;;;17.30;99.90;;;;;;5034233;28;20117;-77
2022/07/10 05:53:30;;;;;;;5.88;2.90;;;17.40;99.90;;;;;;5032825;28;20052;-77
2022/07/10 05:56:01;;;;;;;2.25;1.95;;;17.50;99.90;;;;;;5034161;28;20022;-77
2022/07/10 05:58:26;;;;;;;1.98;1.73;;;17.60;99.90;;;;;;5032711;28;20045;-77
2022/07/10 06:00:52;;;;;;;2.17;1.60;;;17.60;99.90;;;;;;5034073;28;20139;-77
2022/07/10 06:03:17;;;;;;;1.58;1.48;;;17.70;99.90;;;;;;5033950;28;20032;-71
2022/07/10 06:05:43;;;;;;;3.35;1.50;;;17.70;99.90;;;;;;5032561;28;20100;-71
2022/07/10 06:08:10;;;;;;;2.70;1.55;;;17.70;99.90;;;;;;5034024;28;20021;-70
2022/07/10 06:10:36;;;;;;;1.80;1.70;;;17.60;99.90;;;;;;5033380;28;20454;-71
2022/07/10 06:13:02;;;;;;;4.13;2.05;;;17.50;99.90;;;;;;5033513;28;20025;-71
2022/07/10 06:15:27;;;;;;;2.38;1.73;;;17.50;99.90;;;;;;5034011;28;20029;-71
2022/07/10 06:17:57;;;;;;;1.60;1.50;;;17.50;99.90;;;;;;5033788;28;20029;-70
2022/07/10 06:20:22;;;;;;;1.83;1.30;;;17.50;99.90;;;;;;5032451;28;20038;-70
2022/07/10 06:22:48;;;;;;;1.92;1.83;;;17.60;99.90;;;;;;5033805;28;20112;-77
2022/07/10 06:25:14;;;;;;;2.28;1.90;;;17.60;99.90;;;;;;5065183;28;20032;-76
2022/07/10 06:27:39;;;;;;;1.95;1.80;;;17.60;99.90;;;;;;5033735;28;20444;-75
2022/07/10 06:30:05;;;;;;;2.75;2.00;;;17.60;99.90;;;;;;5034204;28;20036;-75
2022/07/10 06:32:31;;;;;;;4.00;2.00;;;17.60;99.90;;;;;;5032655;28;20377;-60
2022/07/10 06:34:57;;;;;;;2.20;2.10;;;17.50;99.90;;;;;;5033567;28;20034;-60
2022/07/10 06:37:22;;;;;;;2.15;1.80;;;17.50;99.90;;;;;;5033513;28;20167;-60
2022/07/10 06:39:48;;;;;;;3.65;2.05;;;17.40;99.90;;;;;;5033446;28;20037;-60
2022/07/10 06:42:14;;;;;;;2.42;2.22;;;17.40;99.90;;;;;;5033559;28;20033;-60
2022/07/10 06:44:41;;;;;;;3.28;2.28;;;17.40;99.90;;;;;;5033493;28;20036;-60
2022/07/10 06:49:52;;;;;;;2.00;1.80;;;17.60;99.90;;;;;;5033236;28;20111;-61
2022/07/10 06:52:18;;;;;;;2.97;1.90;;;17.70;99.90;;;;;;5033500;28;20385;-61
2022/07/10 06:54:44;;;;;;;2.55;1.75;;;17.70;99.90;;;;;;5033622;28;20037;-60
2022/07/10 06:57:10;;;;;;;2.38;2.17;;;17.70;99.90;;;;;;5033443;28;20042;-77
2022/07/10 06:59:36;;;;;;;3.75;2.00;;;17.80;99.90;;;;;;5033404;28;20075;-77
2022/07/10 07:02:02;;;;;;;2.90;1.77;;;17.80;99.90;;;;;;5033522;28;20035;-76
2022/07/10 07:04:27;;;;;;;2.00;1.75;;;17.70;99.90;;;;;;5033621;28;20026;-75
2022/07/10 07:06:53;;;;;;;4.55;2.22;;;17.80;99.90;;;;;;5033648;28;20025;-75
2022/07/10 07:09:19;;;;;;;8.80;2.05;;;18.00;99.90;;;;;;5032129;28;20027;-75
2022/07/10 07:11:45;;;;;;;3.88;2.13;;;18.00;99.90;;;;;;5033545;28;20029;-76
2022/07/10 07:14:11;;;;;;;1.80;1.70;;;18.10;99.90;;;;;;5033292;28;20022;-76
2022/07/10 07:16:44;;;;;;;2.92;1.80;;;18.00;99.90;;;;;;5032258;28;20117;-61
2022/07/10 07:19:11;;;;;;;3.25;1.98;;;17.80;99.90;;;;;;5063807;28;20030;-61
2022/07/10 07:24:22;;;;;;;2.10;1.40;;;17.70;99.90;;;;;;5033052;28;20040;-61
2022/07/10 07:26:48;;;;;;;3.10;1.38;;;17.50;99.90;;;;;;5033300;28;20017;-62
2022/07/10 07:29:17;;;;;;;2.80;2.35;;;17.50;99.90;;;;;;5033067;28;20112;-61
2022/07/10 07:31:43;;;;;;;4.32;1.70;;;17.50;99.90;;;;;;5033025;28;20032;-62
2022/07/10 07:34:09;;;;;;;2.13;1.90;;;17.50;99.90;;;;;;5033521;28;20022;-63
2022/07/10 07:36:36;;;;;;;4.75;1.85;;;17.50;99.90;;;;;;5033235;28;20056;-63
2022/07/10 07:39:01;;;;;;;14.57;4.80;;;17.40;99.90;;;;;;5035833;28;20072;-62
2022/07/10 07:41:27;;;;;;;6.65;3.28;;;17.10;99.90;;;;;;5036234;28;20432;-71
2022/07/10 07:43:52;;;;;;;11.95;4.40;;;16.70;99.90;;;;;;5036832;28;20032;-73
2022/07/10 07:46:19;;;;;;;5.65;3.25;;;16.30;99.90;;;;;;5036804;28;20060;-72
2022/07/10 07:48:45;;;;;;;5.40;4.03;;;15.80;99.90;;;;;;5037019;28;20030;-73
2022/07/10 07:51:11;;;;;;;8.77;4.25;;;15.40;99.90;;;;;;5036504;28;20033;-74
2022/07/10 07:53:37;;;;;;;7.32;4.38;;;15.20;99.90;;;;;;5036367;28;20029;-76
2022/07/10 07:56:03;;;;;;;4.95;4.38;;;15.00;99.90;;;;;;5036342;28;20027;-77
2022/07/10 07:58:29;;;;;;;10.57;4.88;;;14.90;99.90;;;;;;5036518;28;20377;-65
2022/07/10 08:00:56;;;;;;;10.48;5.63;;;14.90;99.90;;;;;;5036419;28;20102;-67
2022/07/10 08:03:22;;;;;;;7.05;4.68;;;14.90;99.90;;;;;;5036380;28;20424;-68
2022/07/10 08:05:49;;;;;;;5.60;4.28;;;14.90;99.90;;;;;;5036117;28;20028;-76
2022/07/10 08:08:14;;;;;;;8.15;4.88;;;14.80;99.90;;;;;;5035999;28;20108;-70
2022/07/10 08:10:40;;;;;;;9.80;4.38;;;14.80;99.90;;;;;;5036046;28;20112;-69
2022/07/10 08:13:06;;;;;;;8.98;5.50;;;14.70;99.90;;;;;;5035682;28;20520;-70
2022/07/10 08:15:31;;;;;;;7.72;5.43;;;14.70;99.90;;;;;;5036187;28;20029;-75
2022/07/10 08:17:59;;;;;;;9.73;6.13;;;14.70;99.90;;;;;;5035847;28;20021;-69
2022/07/10 08:20:25;;;;;;;6.13;5.10;;;14.70;99.90;;;;;;5035794;28;20037;-71
2022/07/10 08:22:53;;;;;;;10.50;5.63;;;14.80;99.90;;;;;;5035861;28;20036;-74
2022/07/10 08:25:19;;;;;;;7.97;3.85;;;14.80;99.90;;;;;;5035648;28;20030;-71
2022/07/10 08:27:45;;;;;;;5.63;5.07;;;14.80;99.90;;;;;;5035748;28;20022;-73
2022/07/10 08:30:11;;;;;;;6.10;3.45;;;14.80;99.90;;;;;;5035393;28;20445;-71
2022/07/10 08:32:40;;;;;;;3.53;3.20;;;14.80;99.90;;;;;;5035637;28;20484;-76
2022/07/10 08:35:08;;;;;;;5.90;3.42;;;14.80;99.90;;;;;;5035636;28;20354;-75
2022/07/10 08:37:41;;;;;;;7.63;3.22;;;14.80;99.90;;;;;;5035674;28;20037;-75
2022/07/10 08:40:12;;;;;;;4.10;2.75;;;15.00;99.90;;;;;;5035403;28;20030;-72
2022/07/10 08:42:38;;;;;;;4.55;2.47;;;15.30;99.90;;;;;;5035943;28;20029;-76
2022/07/10 08:45:04;;;;;;;5.65;2.72;;;15.90;99.90;;;;;;5035147;28;20044;-76
2022/07/10 08:47:31;;;;;;;2.42;2.03;;;16.10;99.90;;;;;;5035306;28;20030;-76
2022/07/10 08:49:57;;;;;;;2.95;1.98;;;16.30;99.90;;;;;;5034970;28;20041;-77
2022/07/10 08:52:31;;;;;;;4.05;1.95;;;16.40;99.90;;;;;;5035250;28;20025;-77
2022/07/10 08:54:57;;;;;;;3.17;1.60;;;16.40;99.90;;;;;;5035211;28;20112;-77
2022/07/10 08:57:24;;;;;;;4.45;1.67;;;16.50;99.90;;;;;;5035029;28;20512;-76
2022/07/10 08:59:49;;;;;;;2.22;1.48;;;16.50;99.90;;;;;;5035512;28;20121;-77
2022/07/10 09:02:15;;;;;;;5.40;1.95;;;16.40;99.90;;;;;;5035026;28;20079;-78
2022/07/10 09:04:41;;;;;;;3.42;1.30;;;16.30;99.90;;;;;;5033815;28;20458;-77
2022/07/10 09:07:07;;;;;;;3.15;1.50;;;16.30;99.90;;;;;;5034149;28;20481;-78
2022/07/10 09:09:57;;;;;;;1.92;1.20;;;16.50;99.90;;;;;;5034919;28;20481;-77
2022/07/10 09:12:24;;;;;;;1.65;1.27;;;16.80;99.90;;;;;;5034829;28;20037;-76
2022/07/10 09:14:50;;;;;;;3.53;1.10;;;17.40;99.90;;;;;;5034847;28;20029;-74
2022/07/10 09:17:17;;;;;;;2.67;0.85;;;17.80;99.90;;;;;;5033773;28;20385;-74
2022/07/10 09:19:44;;;;;;;2.78;0.98;;;18.30;99.90;;;;;;5034272;28;20033;-73
2022/07/10 09:22:11;;;;;;;3.63;1.00;;;18.30;99.90;;;;;;5034573;28;20030;-74
2022/07/10 09:24:43;;;;;;;2.63;0.90;;;18.50;99.90;;;;;;5034530;28;20026;-76
2022/07/10 09:27:10;;;;;;;3.72;1.10;;;19.00;99.90;;;;;;5034596;28;20025;-77
2022/07/10 09:29:56;;;;;;;5.13;1.50;;;19.70;99.90;;;;;;5034512;28;20099;-75
2022/07/10 09:32:22;;;;;;;2.15;1.10;;;19.70;99.90;;;;;;5034430;28;20025;-70
2022/07/10 09:36:04;;;;;;;4.28;1.10;;;19.60;99.90;;;;;;5034384;28;20030;-76
2022/07/10 09:37:43;;;;;;;2.30;0.90;;;19.90;99.90;;;;;;5034027;28;20041;-65
2022/07/10 09:40:09;;;;;;;2.72;1.40;;;20.20;99.90;;;;;;5033276;28;20432;-68
2022/07/10 09:42:36;;;;;;;2.60;0.95;;;19.90;99.90;;;;;;5034357;28;20029;-69
2022/07/10 09:45:14;;;;;;;4.22;1.40;;;19.40;99.90;;;;;;5033938;28;20421;-69
2022/07/10 09:47:41;;;;;;;2.40;1.10;;;19.10;99.90;;;;;;5034186;28;20067;-72
2022/07/10 09:50:34;;;;;;;4.43;1.30;;;18.90;99.90;;;;;;5033742;28;20049;-69
2022/07/10 09:53:01;;;;;;;3.08;1.23;;;19.30;99.90;;;;;;5034382;28;20124;-69
2022/07/10 09:55:29;;;;;;;2.70;1.48;;;19.20;99.90;;;;;;5032476;28;20025;-68
2022/07/10 09:57:56;;;;;;;2.38;1.33;;;19.10;99.90;;;;;;5033839;28;20045;-68
2022/07/10 10:00:30;;;;;;;3.45;1.23;;;19.40;99.90;;;;;;5033145;28;20033;-69
2022/07/10 10:02:57;;;;;;;2.05;1.00;;;19.70;99.90;;;;;;5032719;28;20108;-69
2022/07/10 10:05:31;;;;;;;2.85;0.98;;;19.70;99.90;;;;;;5033921;28;20104;-69
2022/07/10 10:07:58;;;;;;;3.53;1.13;;;19.90;99.90;;;;;;5034136;28;20021;-69
2022/07/10 10:10:24;;;;;;;1.27;1.10;;;20.40;99.90;;;;;;5033559;28;20457;-67
2022/07/10 10:12:54;;;;;;;3.35;1.13;;;20.20;99.90;;;;;;5033930;28;20022;-67
2022/07/10 10:15:22;;;;;;;7.40;2.70;;;20.00;99.90;;;;;;5034099;28;20532;-57
2022/07/10 10:17:50;;;;;;;3.15;1.30;;;19.90;99.90;;;;;;5033496;28;20029;-58
2022/07/10 10:23:03;;;;;;;7.57;1.35;;;19.60;99.90;;;;;;5033809;28;20111;-58
2022/07/10 10:25:31;;;;;;;2.30;1.65;;;19.40;99.90;;;;;;5033804;28;20026;-58
2022/07/10 10:27:59;;;;;;;3.33;1.48;;;19.50;99.90;;;;;;5032405;28;20036;-58
2022/07/10 10:30:25;;;;;;;3.08;1.10;;;19.70;99.90;;;;;;5033913;28;20034;-57
2022/07/10 10:32:50;;;;;;;3.10;1.70;;;19.70;99.90;;;;;;5034249;28;20040;-58
2022/07/10 10:35:41;;;;;;;1.55;1.15;;;19.60;99.90;;;;;;5033744;28;20049;-58
2022/07/10 10:38:07;;;;;;;6.22;1.50;;;19.30;99.90;;;;;;5033317;28;20032;-73
2022/07/10 10:40:34;;;;;;;1.63;1.20;;;19.30;99.90;;;;;;5033483;28;20033;-69
2022/07/10 10:43:23;;;;;;;3.33;1.60;;;19.40;99.90;;;;;;5033570;28;20030;-67
2022/07/10 10:45:49;;;;;;;;;;;19.60;99.90;;;;;;5033869;28;20374;-68
2022/07/10 10:48:17;;;;;;;2.22;1.10;;;19.60;99.90;;;;;;5033462;28;19913;-68
2022/07/10 10:50:47;;;;;;;4.47;1.42;;;19.40;99.90;;;;;;5033434;28;20385;-68
2022/07/10 10:53:13;;;;;;;2.88;1.00;;;19.60;99.90;;;;;;5033265;28;20480;-68
2022/07/10 10:55:41;;;;;;;3.45;1.50;;;19.90;99.90;;;;;;5033575;28;20026;-67
2022/07/10 10:58:23;;;;;;;5.60;1.08;;;20.10;99.90;;;;;;5033478;28;20075;-67
2022/07/10 11:00:49;;;;;;;1.60;1.00;;;20.10;99.90;;;;;;5033429;28;20036;-67
2022/07/10 11:03:21;;;;;;;1.95;1.17;;;19.70;99.90;;;;;;5033327;28;20033;-79
2022/07/10 11:05:48;;;;;;;3.00;1.15;;;19.20;99.90;;;;;;5065763;28;20026;-81
2022/07/10 11:08:34;;;;;;;1.02;0.90;;;19.00;99.90;;;;;;5033019;28;20044;-77
2022/07/10 11:11:00;;;;;;;1.70;0.70;;;19.00;99.90;;;;;;5032155;28;20084;-80
2022/07/10 11:13:29;;;;;;;3.33;0.77;;;19.20;99.90;;;;;;5036864;28;20441;-60
2022/07/10 11:15:57;;;;;;;2.35;0.90;;;19.80;99.90;;;;;;5068691;28;20030;-61
2022/07/10 11:18:25;;;;;;;2.88;1.00;;;20.30;99.90;;;;;;5036951;28;20038;-60
2022/07/10 11:20:55;;;;;;;4.25;1.20;;;20.30;99.90;;;;;;5036579;28;20389;-61
2022/07/10 11:23:33;;;;;;;4.55;0.90;;;20.20;99.90;;;;;;5035769;28;20064;-61
2022/07/10 11:26:10;;;;;;;6.82;0.90;;;19.80;99.90;;;;;;5035780;28;20079;-61
2022/07/10 11:28:57;;;;;;;2.40;0.82;;;19.50;99.90;;;;;;5036648;28;20475;-61
2022/07/10 11:31:24;;;;;;;1.52;1.10;;;19.30;99.90;;;;;;5036909;28;20037;-61
2022/07/10 11:33:53;;;;;;;2.58;0.90;;;19.10;99.90;;;;;;5036436;28;20113;-61
2022/07/10 11:36:21;;;;;;;3.40;0.90;;;19.10;99.90;;;;;;5036890;28;20025;-61
2022/07/10 11:38:47;;;;;;;4.32;1.08;;;19.20;99.90;;;;;;5036605;28;20291;-61
2022/07/10 11:41:21;;;;;;;0.88;0.60;;;19.20;99.90;;;;;;5036561;28;20461;-61
2022/07/10 11:43:55;;;;;;;2.65;0.55;;;19.10;99.90;;;;;;5036701;28;20038;-70
2022/07/10 11:46:23;;;;;;;2.20;0.50;;;19.20;99.90;;;;;;5035516;28;20025;-76
2022/07/10 11:48:52;;;;;;;3.13;0.70;;;18.90;99.80;;;;;;5036502;28;20067;-76
2022/07/10 11:51:26;;;;;;;3.33;1.40;;;18.80;99.90;;;;;;5036376;28;20458;-78
2022/07/10 11:53:53;;;;;;;2.30;0.60;;;19.20;99.60;;;;;;5068961;28;20029;-76
2022/07/10 11:56:20;;;;;;;3.75;0.57;;;19.80;99.40;;;;;;5035061;28;20036;-78
2022/07/10 11:59:01;;;;;;;1.42;0.60;;;20.40;97.10;;;;;;5068218;28;20049;-82
2022/07/10 12:01:29;;;;;;;3.97;0.63;;;21.30;94.10;;;;;;5035044;28;20040;-79
2022/07/10 12:04:03;;;;;;;2.90;0.50;;;21.90;91.00;;;;;;5036267;28;20038;-77
2022/07/10 12:06:31;;;;;;;1.58;0.30;;;22.40;87.10;;;;;;5034943;28;20029;-78
2022/07/10 12:09:05;;;;;;;1.30;0.40;;;22.40;85.40;;;;;;5034887;28;20385;-79
2022/07/10 12:11:31;;;;;;;4.55;0.80;;;22.20;84.70;;;;;;5036423;28;20053;-79
2022/07/10 12:14:18;;;;;;;2.42;0.52;;;21.60;81.50;;;;;;5034471;28;20025;-79
2022/07/10 12:16:48;;;;;;;5.07;0.40;;;21.00;82.50;;;;;;5034980;28;20351;-79
2022/07/10 12:19:17;;;;;;;2.25;0.40;;;20.70;87.60;;;;;;5036195;28;20384;-79
2022/07/10 12:21:44;;;;;;;1.37;0.40;;;20.80;84.30;;;;;;5035791;28;20121;-78
2022/07/10 12:24:12;;;;;;;2.55;0.47;;;20.90;87.40;;;;;;5033748;28;20700;-78
2022/07/10 12:26:41;;;;;;;1.35;0.40;;;21.00;84.90;;;;;;5034608;28;20033;-75
2022/07/10 12:29:23;;;;;;;1.20;0.63;;;21.00;79.70;;;;;;5067659;28;20072;-76
2022/07/10 12:31:51;;;;;;;1.90;0.40;;;21.00;79.40;;;;;;5035688;28;20022;-75
2022/07/10 12:34:17;;;;;;;1.05;0.20;;;21.20;76.80;;;;;;5067533;28;20147;-77
2022/07/10 12:36:47;;;;;;;0.57;0.20;;;22.20;70.60;;;;;;5035898;28;20034;-78
2022/07/10 12:39:14;;;;;;;1.13;0.20;;;23.10;68.00;;;;;;5067647;28;20374;-77
2022/07/10 12:41:58;;;;;;;1.50;0.20;;;24.50;63.70;;;;;;5035343;28;20029;-77
2022/07/10 12:45:12;;;;;;;1.02;0.40;;;25.40;55.60;;;;;;5067363;28;20065;-77
2022/07/10 12:47:48;;;;;;;1.92;0.30;;;25.50;55.70;;;;;;5036131;28;20048;-78
2022/07/10 12:50:16;;;;;;;2.97;1.05;;;25.50;52.90;;;;;;5062335;28;20044;-77
2022/07/10 12:52:41;;;;;;;2.53;0.20;;;25.70;53.60;;;;;;5075021;28;20032;-78
2022/07/10 12:55:25;;;;;;;1.48;0.22;;;25.10;50.40;;;;;;5073927;28;20025;-78
2022/07/10 12:57:54;;;;;;;1.15;0.20;;;24.90;52.20;;;;;;5074090;28;20053;-77
2022/07/10 13:00:26;;;;;;;2.55;0.47;;;25.50;52.50;;;;;;5073738;28;20029;-77